createdAt,value
2018-09-29T00:00:23.544Z,1004.62
2018-09-29T00:01:33.359Z,1004.72
2018-09-29T00:02:43.498Z,1004.67
2018-09-29T00:03:53.553Z,1004.63
2018-09-29T00:05:03.974Z,1004.68
2018-09-29T00:06:13.801Z,1004.65
2018-09-29T00:07:23.872Z,1004.75
2018-09-29T00:08:34.030Z,1004.77
2018-09-29T00:09:44.117Z,1004.78
2018-09-29T00:10:54.206Z,1004.82
2018-09-29T00:12:04.049Z,1004.84
2018-09-29T00:13:14.130Z,1004.87
2018-09-29T00:14:24.197Z,1004.8
2018-09-29T00:15:34.289Z,1004.77
2018-09-29T00:16:44.369Z,1004.82
2018-09-29T00:17:54.269Z,1004.79
2018-09-29T00:19:04.546Z,1004.73
2018-09-29T00:20:14.705Z,1004.76
2018-09-29T00:21:24.497Z,1004.76
2018-09-29T00:22:34.358Z,1004.8
2018-09-29T00:23:43.905Z,1004.86
2018-09-29T00:24:53.990Z,1004.91
2018-09-29T00:26:03.796Z,1004.89
2018-09-29T00:27:13.932Z,1004.93
2018-09-29T00:28:23.220Z,1005
2018-09-29T00:29:33.294Z,1004.96
2018-09-29T00:30:43.375Z,1004.99
2018-09-29T00:31:53.468Z,1005.02
2018-09-29T00:33:03.548Z,1005.05
2018-09-29T00:34:13.626Z,1005.09
2018-09-29T00:35:23.717Z,1005.12
2018-09-29T00:36:33.782Z,1005.14
2018-09-29T00:37:43.590Z,1005.16
2018-09-29T00:38:53.705Z,1005.16
2018-09-29T00:40:03.790Z,1005.19
2018-09-29T00:41:13.881Z,1005.22
2018-09-29T00:42:23.958Z,1005.27
2018-09-29T00:43:34.026Z,1005.27
2018-09-29T00:44:44.083Z,1005.27
2018-09-29T00:45:54.283Z,1005.27
2018-09-29T00:47:04.099Z,1005.33
2018-09-29T00:48:13.923Z,1005.38
2018-09-29T00:49:24.062Z,1005.41
2018-09-29T00:50:34.131Z,1005.47
2018-09-29T00:51:44.211Z,1005.55
2018-09-29T00:52:54.380Z,1005.44
2018-09-29T00:54:06.006Z,1005.51
2018-09-29T00:55:15.916Z,1005.5
2018-09-29T00:56:25.991Z,1005.5
2018-09-29T00:57:35.807Z,1005.54
2018-09-29T00:58:46.140Z,1005.53
2018-09-29T00:59:55.955Z,1005.49
2018-09-29T01:01:08.437Z,1005.46
2018-09-29T01:02:18.513Z,1005.47
2018-09-29T01:03:28.586Z,1005.43
2018-09-29T01:04:38.400Z,1005.48
2018-09-29T01:05:48.215Z,1005.5
2018-09-29T01:06:58.320Z,1005.6
2018-09-29T01:08:08.462Z,1005.65
2018-09-29T01:09:18.538Z,1005.7
2018-09-29T01:10:28.651Z,1005.72
2018-09-29T01:11:38.181Z,1005.71
2018-09-29T01:12:48.224Z,1005.72
2018-09-29T01:13:57.762Z,1005.73
2018-09-29T01:15:07.827Z,1005.71
2018-09-29T01:16:17.879Z,1005.72
2018-09-29T01:17:27.675Z,1005.72
2018-09-29T01:18:37.828Z,1005.72
2018-09-29T01:19:47.895Z,1005.72
2018-09-29T01:20:57.996Z,1005.71
2018-09-29T01:22:07.529Z,1005.76
2018-09-29T01:23:17.605Z,1005.76
2018-09-29T01:24:27.246Z,1005.79
2018-09-29T01:25:37.315Z,1005.84
2018-09-29T01:26:47.489Z,1005.85
2018-09-29T01:27:57.569Z,1005.88
2018-09-29T01:29:07.367Z,1005.88
2018-09-29T01:30:17.461Z,1005.91
2018-09-29T01:31:27.532Z,1005.84
2018-09-29T01:32:37.639Z,1005.84
2018-09-29T01:33:47.439Z,1005.88
2018-09-29T01:34:57.498Z,1005.82
2018-09-29T01:36:07.593Z,1005.85
2018-09-29T01:37:17.701Z,1005.79
2018-09-29T01:38:27.527Z,1005.81
2018-09-29T01:39:37.926Z,1005.81
2018-09-29T01:40:51.135Z,1005.84
2018-09-29T01:42:08.204Z,1005.86
2018-09-29T01:43:22.287Z,1005.83
2018-09-29T01:44:35.905Z,1005.81
2018-09-29T01:45:46.477Z,1005.84
2018-09-29T01:46:56.538Z,1005.85
2018-09-29T01:48:08.837Z,1005.88
2018-09-29T01:49:18.628Z,1005.87
2018-09-29T01:50:28.465Z,1005.98
2018-09-29T01:51:38.531Z,1005.96
2018-09-29T01:52:48.633Z,1005.93
2018-09-29T01:53:58.695Z,1005.95
2018-09-29T01:55:08.791Z,1005.96
2018-09-29T01:56:18.921Z,1006.02
2018-09-29T01:57:28.981Z,1005.99
2018-09-29T01:58:39.078Z,1006.08
2018-09-29T01:59:49.149Z,1006.04
2018-09-29T02:00:59.234Z,1006.09
2018-09-29T02:02:09.318Z,1006.02
2018-09-29T02:03:19.117Z,1006.11
2018-09-29T02:04:28.939Z,1006.1
2018-09-29T02:05:38.512Z,1006.11
2018-09-29T02:06:48.328Z,1006.09
2018-09-29T02:07:58.442Z,1006.1
2018-09-29T02:09:09.001Z,1006.18
2018-09-29T02:10:19.138Z,1006.15
2018-09-29T02:11:29.220Z,1006.13
2018-09-29T02:12:39.287Z,1006.11
2018-09-29T02:13:49.122Z,1006.12
2018-09-29T02:14:59.202Z,1006.09
2018-09-29T02:16:09.012Z,1006.14
2018-09-29T02:17:18.834Z,1006.12
2018-09-29T02:18:28.907Z,1006.16
2018-09-29T02:19:38.989Z,1006.14
2018-09-29T02:20:49.061Z,1006.16
2018-09-29T02:21:59.178Z,1006.2
2018-09-29T02:23:09.250Z,1006.2
2018-09-29T02:24:19.344Z,1006.17
2018-09-29T02:25:29.140Z,1006.18
2018-09-29T02:26:39.208Z,1006.14
2018-09-29T02:27:49.276Z,1006.21
2018-09-29T02:28:59.360Z,1006.21
2018-09-29T02:30:09.366Z,1006.23
2018-09-29T02:31:19.457Z,1006.3
2018-09-29T02:32:29.551Z,1006.35
2018-09-29T02:33:39.409Z,1006.26
2018-09-29T02:34:49.477Z,1006.33
2018-09-29T02:35:59.287Z,1006.33
2018-09-29T02:37:09.409Z,1006.37
2018-09-29T02:38:19.477Z,1006.41
2018-09-29T02:39:29.680Z,1006.4
2018-09-29T02:40:39.506Z,1006.41
2018-09-29T02:41:49.598Z,1006.38
2018-09-29T02:42:59.687Z,1006.34
2018-09-29T02:44:10.026Z,1006.43
2018-09-29T02:45:21.050Z,1006.4
2018-09-29T02:46:30.852Z,1006.43
2018-09-29T02:47:40.930Z,1006.43
2018-09-29T02:48:51.025Z,1006.43
2018-09-29T02:50:03.312Z,1006.36
2018-09-29T02:51:13.430Z,1006.36
2018-09-29T02:52:23.503Z,1006.48
2018-09-29T02:53:33.596Z,1006.38
2018-09-29T02:54:43.663Z,1006.32
2018-09-29T02:55:53.469Z,1006.35
2018-09-29T02:57:03.643Z,1006.35
2018-09-29T02:58:13.720Z,1006.38
2018-09-29T02:59:23.540Z,1006.34
2018-09-29T03:00:33.606Z,1006.4
2018-09-29T03:01:43.680Z,1006.42
2018-09-29T03:34:29.680Z,1006.47
2018-09-29T03:35:39.738Z,1006.46
2018-09-29T03:36:49.814Z,1006.53
2018-09-29T03:37:59.879Z,1006.56
2018-09-29T03:39:11.156Z,1006.62
2018-09-29T03:40:21.213Z,1006.66
2018-09-29T03:41:31.009Z,1006.69
2018-09-29T03:42:41.087Z,1006.69
2018-09-29T03:43:51.140Z,1006.71
2018-09-29T03:45:02.406Z,1006.76
2018-09-29T03:46:12.300Z,1006.71
2018-09-29T03:47:22.381Z,1006.67
2018-09-29T03:48:32.474Z,1006.68
2018-09-29T03:49:42.543Z,1006.68
2018-09-29T03:50:52.605Z,1006.62
2018-09-29T03:52:02.707Z,1006.65
2018-09-29T03:53:12.769Z,1006.62
2018-09-29T03:54:22.887Z,1006.62
2018-09-29T03:55:32.685Z,1006.65
2018-09-29T03:56:42.488Z,1006.61
2018-09-29T03:57:52.556Z,1006.63
2018-09-29T03:59:02.621Z,1006.63
2018-09-29T04:00:12.693Z,1006.6
2018-09-29T04:01:22.251Z,1006.58
2018-09-29T04:02:32.335Z,1006.63
2018-09-29T04:03:42.632Z,1006.61
2018-09-29T04:04:52.427Z,1006.61
2018-09-29T04:06:02.649Z,1006.67
2018-09-29T04:07:12.456Z,1006.66
2018-09-29T04:08:22.252Z,1006.69
2018-09-29T04:09:32.089Z,1006.65
2018-09-29T04:10:42.151Z,1006.71
2018-09-29T04:11:52.231Z,1006.71
2018-09-29T04:13:02.289Z,1006.71
2018-09-29T04:14:12.114Z,1006.73
2018-09-29T04:15:22.247Z,1006.74
2018-09-29T04:16:32.113Z,1006.76
2018-09-29T04:17:42.184Z,1006.78
2018-09-29T04:18:52.010Z,1006.79
2018-09-29T04:20:02.865Z,1006.82
2018-09-29T04:21:12.960Z,1006.76
2018-09-29T04:22:23.034Z,1006.77
2018-09-29T04:23:33.079Z,1006.78
2018-09-29T04:24:43.140Z,1006.89
2018-09-29T04:25:53.198Z,1006.85
2018-09-29T04:27:02.997Z,1006.91
2018-09-29T04:28:13.112Z,1006.96
2018-09-29T04:29:23.173Z,1006.97
2018-09-29T04:30:33.250Z,1006.98
2018-09-29T04:31:43.311Z,1006.99
2018-09-29T04:32:53.292Z,1007.05
2018-09-29T04:34:03.335Z,1007.13
2018-09-29T04:35:13.252Z,1007.13
2018-09-29T04:36:23.310Z,1007.15
2018-09-29T04:37:33.102Z,1007.13
2018-09-29T04:38:43.223Z,1007.14
2018-09-29T04:39:53.334Z,1007.18
2018-09-29T04:41:03.426Z,1007.21
2018-09-29T04:42:13.494Z,1007.14
2018-09-29T04:43:23.572Z,1007.16
2018-09-29T04:44:33.771Z,1007.23
2018-09-29T04:45:43.836Z,1007.27
2018-09-29T04:46:53.998Z,1007.3
2018-09-29T04:48:06.027Z,1007.32
2018-09-29T04:49:15.916Z,1007.36
2018-09-29T04:50:26.127Z,1007.37
2018-09-29T04:51:36.212Z,1007.36
2018-09-29T04:52:46.278Z,1007.39
2018-09-29T04:53:56.338Z,1007.4
2018-09-29T04:55:06.597Z,1007.43
2018-09-29T04:56:16.666Z,1007.51
2018-09-29T04:57:26.509Z,1007.5
2018-09-29T04:58:36.318Z,1007.53
2018-09-29T04:59:46.394Z,1007.55
2018-09-29T05:00:56.468Z,1007.55
2018-09-29T05:02:06.620Z,1007.52
2018-09-29T05:03:16.687Z,1007.57
2018-09-29T05:04:26.770Z,1007.59
2018-09-29T05:05:36.568Z,1007.64
2018-09-29T05:06:46.623Z,1007.73
2018-09-29T05:07:56.692Z,1007.7
2018-09-29T05:09:06.246Z,1007.7
2018-09-29T05:10:15.879Z,1007.72
2018-09-29T05:11:25.671Z,1007.73
2018-09-29T05:12:35.738Z,1007.81
2018-09-29T05:13:45.885Z,1007.87
2018-09-29T05:14:56.157Z,1007.91
2018-09-29T05:16:05.967Z,1007.98
2018-09-29T05:17:16.025Z,1007.93
2018-09-29T05:18:26.105Z,1007.92
2018-09-29T05:19:35.892Z,1007.98
2018-09-29T05:20:45.689Z,1007.98
2018-09-29T05:21:55.745Z,1008.03
2018-09-29T05:23:07.600Z,1008.01
2018-09-29T05:24:18.111Z,1008.02
2018-09-29T05:25:28.190Z,1008.02
2018-09-29T05:26:38.035Z,1008.04
2018-09-29T05:27:48.094Z,1008.06
2018-09-29T05:28:57.672Z,1008.06
2018-09-29T05:30:08.349Z,1008.07
2018-09-29T05:31:18.514Z,1008.07
2018-09-29T05:32:28.338Z,1008.08
2018-09-29T05:33:38.420Z,1008.08
2018-09-29T05:34:48.500Z,1008.11
2018-09-29T05:35:58.604Z,1008.06
2018-09-29T05:37:09.922Z,1008.05
2018-09-29T05:38:20.043Z,1008.08
2018-09-29T05:39:30.482Z,1008.13
2018-09-29T05:40:40.656Z,1008.16
2018-09-29T05:41:50.467Z,1008.18
2018-09-29T05:43:00.378Z,1008.2
2018-09-29T05:44:10.209Z,1008.11
2018-09-29T05:45:20.057Z,1008.15
2018-09-29T05:46:30.136Z,1008.18
2018-09-29T05:47:39.955Z,1008.18
2018-09-29T05:48:49.802Z,1008.13
2018-09-29T05:49:59.864Z,1008.14
2018-09-29T05:51:10.231Z,1008.16
2018-09-29T05:52:20.302Z,1008.14
2018-09-29T05:53:30.393Z,1008.2
2018-09-29T05:54:39.937Z,1008.14
2018-09-29T05:55:49.992Z,1008.12
2018-09-29T05:56:59.809Z,1008.14
2018-09-29T05:58:09.720Z,1008.17
2018-09-29T05:59:19.835Z,1008.2
2018-09-29T06:00:30.102Z,1008.21
2018-09-29T06:01:40.455Z,1008.18
2018-09-29T06:02:50.532Z,1008.24
2018-09-29T06:04:00.368Z,1008.22
2018-09-29T06:05:09.638Z,1008.2
2018-09-29T06:06:19.915Z,1008.21
2018-09-29T06:07:30.028Z,1008.14
2018-09-29T06:08:40.674Z,1008.21
2018-09-29T06:09:50.778Z,1008.25
2018-09-29T06:11:00.438Z,1008.2
2018-09-29T06:12:10.324Z,1008.25
2018-09-29T06:13:20.585Z,1008.24
2018-09-29T06:14:30.051Z,1008.24
2018-09-29T06:15:40.158Z,1008.25
2018-09-29T06:16:50.246Z,1008.22
2018-09-29T06:18:02.881Z,1008.18
2018-09-29T06:19:12.958Z,1008.2
2018-09-29T06:20:23.032Z,1008.26
2018-09-29T06:21:33.136Z,1008.2
2018-09-29T06:22:43.220Z,1008.3
2018-09-29T06:23:53.413Z,1008.24
2018-09-29T06:25:03.525Z,1008.17
2018-09-29T06:26:13.625Z,1008.19
2018-09-29T06:27:23.690Z,1008.18
2018-09-29T06:28:33.773Z,1008.22
2018-09-29T06:29:43.594Z,1008.28
2018-09-29T06:30:53.734Z,1008.24
2018-09-29T06:32:03.807Z,1008.34
2018-09-29T06:33:13.631Z,1008.3
2018-09-29T06:34:23.742Z,1008.3
2018-09-29T06:35:33.506Z,1008.27
2018-09-29T06:36:43.814Z,1008.34
2018-09-29T06:37:54.234Z,1008.33
2018-09-29T06:39:06.559Z,1008.33
2018-09-29T06:40:16.395Z,1008.41
2018-09-29T06:41:26.245Z,1008.33
2018-09-29T06:42:36.347Z,1008.38
2018-09-29T06:43:46.449Z,1008.4
2018-09-29T06:44:56.254Z,1008.39
2018-09-29T06:46:06.396Z,1008.46
2018-09-29T06:47:16.530Z,1008.46
2018-09-29T06:48:26.590Z,1008.41
2018-09-29T06:49:36.658Z,1008.47
2018-09-29T06:50:46.734Z,1008.41
2018-09-29T06:51:56.826Z,1008.5
2018-09-29T06:53:06.925Z,1008.51
2018-09-29T06:54:16.766Z,1008.49
2018-09-29T06:55:27.007Z,1008.59
2018-09-29T06:56:37.092Z,1008.5
2018-09-29T06:57:46.664Z,1008.5
2018-09-29T06:58:56.949Z,1008.51
2018-09-29T07:00:07.027Z,1008.55
2018-09-29T07:01:16.854Z,1008.48
2018-09-29T07:02:26.931Z,1008.53
2018-09-29T07:03:37.035Z,1008.56
2018-09-29T07:04:47.114Z,1008.56
2018-09-29T07:05:57.237Z,1008.53
2018-09-29T07:07:08.116Z,1008.61
2018-09-29T07:08:18.216Z,1008.59
2018-09-29T07:09:28.293Z,1008.68
2018-09-29T07:10:38.121Z,1008.65
2018-09-29T07:11:48.212Z,1008.67
2018-09-29T07:12:58.346Z,1008.71
2018-09-29T07:14:08.333Z,1008.67
2018-09-29T07:15:18.444Z,1008.71
2018-09-29T07:16:28.555Z,1008.67
2018-09-29T07:17:38.647Z,1008.76
2018-09-29T07:18:48.744Z,1008.75
2018-09-29T07:19:58.022Z,1008.75
2018-09-29T07:21:07.848Z,1008.77
2018-09-29T07:22:17.987Z,1008.8
2018-09-29T07:23:28.081Z,1008.89
2018-09-29T07:24:38.144Z,1008.83
2018-09-29T07:25:48.240Z,1008.87
2018-09-29T07:26:58.077Z,1008.83
2018-09-29T07:28:08.218Z,1008.82
2018-09-29T07:29:18.302Z,1008.88
2018-09-29T07:30:28.394Z,1008.84
2018-09-29T07:31:38.588Z,1008.92
2018-09-29T07:32:48.717Z,1008.92
2018-09-29T07:33:58.834Z,1008.95
2018-09-29T07:35:08.937Z,1009.01
2018-09-29T07:36:19.026Z,1009
2018-09-29T07:37:29.109Z,1008.97
2018-09-29T07:38:39.186Z,1009.04
2018-09-29T07:39:49.016Z,1009.1
2018-09-29T07:40:58.839Z,1009.04
2018-09-29T07:42:08.932Z,1008.98
2018-09-29T07:43:19.020Z,1009.04
2018-09-29T07:44:28.836Z,1009.08
2018-09-29T07:45:38.650Z,1009.08
2018-09-29T07:46:48.739Z,1009.08
2018-09-29T07:47:58.835Z,1009.09
2018-09-29T07:49:09.756Z,1009.07
2018-09-29T07:50:20.396Z,1009.11
2018-09-29T07:51:30.489Z,1009.12
2018-09-29T07:52:40.328Z,1009.13
2018-09-29T07:53:50.434Z,1009.11
2018-09-29T07:55:01.405Z,1009.17
2018-09-29T07:56:11.500Z,1009.16
2018-09-29T07:57:21.523Z,1009.15
2018-09-29T07:58:31.620Z,1009.09
2018-09-29T07:59:41.734Z,1009.17
2018-09-29T08:00:51.854Z,1009.16
2018-09-29T08:02:01.960Z,1009.2
2018-09-29T08:03:12.081Z,1009.16
2018-09-29T08:04:22.170Z,1009.26
2018-09-29T08:05:32.260Z,1009.19
2018-09-29T08:06:42.351Z,1009.11
2018-09-29T08:07:51.915Z,1009.16
2018-09-29T08:09:02.006Z,1009.14
2018-09-29T08:10:11.545Z,1009.21
2018-09-29T08:11:21.387Z,1009.09
2018-09-29T08:12:31.265Z,1009.1
2018-09-29T08:13:41.661Z,1009.13
2018-09-29T08:14:51.823Z,1009.25
2018-09-29T08:16:01.651Z,1009.17
2018-09-29T08:17:11.751Z,1009.14
2018-09-29T08:18:21.653Z,1009.14
2018-09-29T08:19:31.739Z,1009.09
2018-09-29T08:20:42.058Z,1009.14
2018-09-29T08:21:52.136Z,1009.12
2018-09-29T08:23:02.231Z,1009.2
2018-09-29T08:24:12.107Z,1009.19
2018-09-29T08:25:22.598Z,1009.19
2018-09-29T08:26:32.763Z,1009.16
2018-09-29T08:27:42.907Z,1009.18
2018-09-29T08:28:52.995Z,1009.25
2018-09-29T08:30:05.604Z,1009.25
2018-09-29T08:31:15.724Z,1009.24
2018-09-29T08:32:25.900Z,1009.28
2018-09-29T08:33:35.952Z,1009.28
2018-09-29T08:34:46.048Z,1009.28
2018-09-29T08:35:56.139Z,1009.37
2018-09-29T08:37:06.252Z,1009.27
2018-09-29T08:38:16.423Z,1009.34
2018-09-29T08:39:26.280Z,1009.2
2018-09-29T08:40:36.402Z,1009.25
2018-09-29T08:41:46.237Z,1009.29
2018-09-29T08:42:56.046Z,1009.26
2018-09-29T08:44:06.603Z,1009.4
2018-09-29T08:45:16.838Z,1009.33
2018-09-29T08:46:26.952Z,1009.25
2018-09-29T08:47:37.123Z,1009.31
2018-09-29T08:48:47.267Z,1009.27
2018-09-29T08:49:57.084Z,1009.24
2018-09-29T08:51:07.189Z,1009.23
2018-09-29T08:52:17.288Z,1009.36
2018-09-29T08:53:27.558Z,1009.33
2018-09-29T08:54:37.900Z,1009.37
2018-09-29T08:55:48.026Z,1009.33
2018-09-29T08:56:58.120Z,1009.39
2018-09-29T08:58:09.601Z,1009.37
2018-09-29T08:59:19.692Z,1009.45
2018-09-29T09:00:29.803Z,1009.52
2018-09-29T09:01:39.945Z,1009.4
2018-09-29T09:02:50.036Z,1009.45
2018-09-29T09:03:59.644Z,1009.51
2018-09-29T09:05:10.102Z,1009.47
2018-09-29T09:06:20.186Z,1009.4
2018-09-29T09:07:30.329Z,1009.51
2018-09-29T09:08:40.397Z,1009.42
2018-09-29T09:09:50.513Z,1009.52
2018-09-29T09:11:02.936Z,1009.47
2018-09-29T09:12:13.023Z,1009.52
2018-09-29T09:13:23.879Z,1009.51
2018-09-29T09:14:33.989Z,1009.5
2018-09-29T09:15:44.088Z,1009.5
2018-09-29T09:16:54.240Z,1009.45
2018-09-29T09:18:04.762Z,1009.5
2018-09-29T09:19:14.841Z,1009.51
2018-09-29T09:20:24.933Z,1009.51
2018-09-29T09:21:34.762Z,1009.53
2018-09-29T09:22:44.830Z,1009.6
2018-09-29T09:23:54.823Z,1009.52
2018-09-29T09:25:05.138Z,1009.59
2018-09-29T09:26:15.223Z,1009.54
2018-09-29T09:27:25.320Z,1009.5
2018-09-29T09:28:35.395Z,1009.48
2018-09-29T09:29:45.275Z,1009.51
2018-09-29T09:30:55.369Z,1009.59
2018-09-29T09:32:07.165Z,1009.53
2018-09-29T09:33:16.997Z,1009.56
2018-09-29T09:34:26.811Z,1009.59
2018-09-29T09:35:36.913Z,1009.64
2018-09-29T09:36:46.992Z,1009.62
2018-09-29T09:37:57.079Z,1009.67
2018-09-29T09:39:08.676Z,1009.62
2018-09-29T09:40:18.779Z,1009.54
2018-09-29T09:41:28.864Z,1009.59
2018-09-29T09:42:39.005Z,1009.6
2018-09-29T09:43:48.913Z,1009.55
2018-09-29T09:44:58.734Z,1009.52
2018-09-29T09:46:10.691Z,1009.64
2018-09-29T09:47:20.922Z,1009.58
2018-09-29T09:48:31.021Z,1009.59
2018-09-29T09:49:41.111Z,1009.61
2018-09-29T09:50:50.928Z,1009.57
2018-09-29T09:52:01.032Z,1009.49
2018-09-29T09:53:11.133Z,1009.55
2018-09-29T09:54:21.247Z,1009.54
2018-09-29T09:55:31.331Z,1009.48
2018-09-29T09:56:41.440Z,1009.39
2018-09-29T09:57:51.532Z,1009.4
2018-09-29T09:59:03.076Z,1009.47
2018-09-29T10:00:13.200Z,1009.41
2018-09-29T10:01:23.294Z,1009.38
2018-09-29T10:02:33.373Z,1009.43
2018-09-29T10:03:43.453Z,1009.39
2018-09-29T10:04:53.551Z,1009.42
2018-09-29T10:06:03.639Z,1009.41
2018-09-29T10:07:13.714Z,1009.42
2018-09-29T10:08:23.864Z,1009.37
2018-09-29T10:09:33.999Z,1009.35
2018-09-29T10:10:43.840Z,1009.38
2018-09-29T10:11:53.910Z,1009.33
2018-09-29T10:13:04.012Z,1009.35
2018-09-29T10:14:14.086Z,1009.36
2018-09-29T10:15:24.176Z,1009.35
2018-09-29T10:16:34.251Z,1009.36
2018-09-29T10:17:44.345Z,1009.36
2018-09-29T10:18:54.175Z,1009.32
2018-09-29T10:20:04.252Z,1009.28
2018-09-29T10:21:13.818Z,1009.29
2018-09-29T10:22:23.668Z,1009.28
2018-09-29T10:23:33.793Z,1009.29
2018-09-29T10:24:43.628Z,1009.28
2018-09-29T10:25:53.453Z,1009.3
2018-09-29T10:27:03.337Z,1009.32
2018-09-29T10:28:13.443Z,1009.33
2018-09-29T10:29:23.520Z,1009.3
2018-09-29T10:30:33.603Z,1009.33
2018-09-29T10:31:43.765Z,1009.3
2018-09-29T10:32:53.593Z,1009.34
2018-09-29T10:34:03.429Z,1009.26
2018-09-29T10:35:13.250Z,1009.3
2018-09-29T10:36:23.390Z,1009.23
2018-09-29T10:37:33.488Z,1009.16
2018-09-29T10:38:43.567Z,1009.26
2018-09-29T10:39:53.760Z,1009.24
2018-09-29T10:41:04.109Z,1009.22
2018-09-29T10:42:14.176Z,1009.2
2018-09-29T10:43:24.336Z,1009.2
2018-09-29T10:44:34.156Z,1009.19
2018-09-29T10:45:44.258Z,1009.16
2018-09-29T10:46:54.338Z,1009.25
2018-09-29T10:48:04.437Z,1009.2
2018-09-29T10:49:14.521Z,1009.27
2018-09-29T10:50:24.635Z,1009.27
2018-09-29T10:51:34.724Z,1009.2
2018-09-29T10:52:44.570Z,1009.23
2018-09-29T10:53:54.577Z,1009.19
2018-09-29T10:55:04.710Z,1009.21
2018-09-29T10:56:14.791Z,1009.18
2018-09-29T10:57:24.911Z,1009.14
2018-09-29T10:58:34.986Z,1009.14
2018-09-29T10:59:45.069Z,1009.2
2018-09-29T11:00:54.901Z,1009.16
2018-09-29T11:02:04.963Z,1009.09
2018-09-29T11:03:14.769Z,1009
2018-09-29T11:04:24.886Z,1009.14
2018-09-29T11:05:34.976Z,1009.05
2018-09-29T11:06:45.204Z,1009.06
2018-09-29T11:07:55.297Z,1009.03
2018-09-29T11:09:05.388Z,1009.02
2018-09-29T11:10:15.475Z,1009.03
2018-09-29T11:11:25.558Z,1009.02
2018-09-29T11:12:35.644Z,1008.97
2018-09-29T11:13:45.492Z,1009.01
2018-09-29T11:14:55.565Z,1008.96
2018-09-29T11:16:05.422Z,1008.92
2018-09-29T11:17:15.512Z,1008.89
2018-09-29T11:18:25.633Z,1008.85
2018-09-29T11:19:35.737Z,1008.83
2018-09-29T11:20:45.823Z,1008.89
2018-09-29T11:21:55.713Z,1008.81
2018-09-29T11:23:05.796Z,1008.81
2018-09-29T11:24:15.615Z,1008.82
2018-09-29T11:25:25.750Z,1008.85
2018-09-29T11:26:35.627Z,1008.74
2018-09-29T11:27:45.805Z,1008.73
2018-09-29T11:28:56.403Z,1008.78
2018-09-29T11:30:06.591Z,1008.72
2018-09-29T11:31:16.694Z,1008.77
2018-09-29T11:32:26.788Z,1008.81
2018-09-29T11:33:36.615Z,1008.79
2018-09-29T11:34:46.455Z,1008.71
2018-09-29T11:35:56.339Z,1008.76
2018-09-29T11:37:06.418Z,1008.73
2018-09-29T11:38:16.325Z,1008.7
2018-09-29T11:39:26.307Z,1008.76
2018-09-29T11:40:36.759Z,1008.71
2018-09-29T11:41:47.053Z,1008.71
2018-09-29T11:42:57.233Z,1008.72
2018-09-29T11:44:07.082Z,1008.69
2018-09-29T11:45:17.008Z,1008.65
2018-09-29T11:46:26.555Z,1008.63
2018-09-29T11:47:36.172Z,1008.55
2018-09-29T11:48:45.995Z,1008.58
2018-09-29T11:49:56.133Z,1008.61
2018-09-29T11:51:08.940Z,1008.68
2018-09-29T11:52:19.017Z,1008.63
2018-09-29T11:53:29.144Z,1008.69
2018-09-29T11:54:38.981Z,1008.63
2018-09-29T11:55:49.053Z,1008.59
2018-09-29T11:56:59.152Z,1008.6
2018-09-29T11:58:11.124Z,1008.55
2018-09-29T11:59:21.228Z,1008.53
2018-09-29T12:00:31.336Z,1008.58
2018-09-29T12:01:41.449Z,1008.53
2018-09-29T12:02:51.572Z,1008.51
2018-09-29T12:04:01.670Z,1008.51
2018-09-29T12:05:11.884Z,1008.52
2018-09-29T12:06:22.038Z,1008.47
2018-09-29T12:07:31.995Z,1008.5
2018-09-29T12:08:42.731Z,1008.49
2018-09-29T12:09:52.819Z,1008.5
2018-09-29T12:11:03.170Z,1008.46
2018-09-29T12:12:13.269Z,1008.42
2018-09-29T12:13:23.379Z,1008.41
2018-09-29T12:14:33.484Z,1008.39
2018-09-29T12:15:43.584Z,1008.37
2018-09-29T12:16:53.720Z,1008.38
2018-09-29T12:18:06.226Z,1008.45
2018-09-29T12:19:16.304Z,1008.45
2018-09-29T12:20:26.146Z,1008.42
2018-09-29T12:21:36.245Z,1008.45
2018-09-29T12:22:46.331Z,1008.52
2018-09-29T12:23:56.140Z,1008.49
2018-09-29T12:25:05.966Z,1008.52
2018-09-29T12:26:16.065Z,1008.5
2018-09-29T12:27:26.148Z,1008.44
2018-09-29T12:28:36.343Z,1008.44
2018-09-29T12:29:46.510Z,1008.44
2018-09-29T12:30:57.081Z,1008.41
2018-09-29T12:32:07.199Z,1008.4
2018-09-29T12:33:17.073Z,1008.42
2018-09-29T12:34:27.161Z,1008.39
2018-09-29T12:35:37.232Z,1008.46
2018-09-29T12:36:47.064Z,1008.43
2018-09-29T12:37:57.435Z,1008.44
2018-09-29T12:39:08.259Z,1008.4
2018-09-29T12:40:18.383Z,1008.44
2018-09-29T12:41:28.201Z,1008.43
2018-09-29T12:42:37.775Z,1008.37
2018-09-29T12:43:47.818Z,1008.37
2018-09-29T12:44:57.538Z,1008.35
2018-09-29T12:46:07.613Z,1008.33
2018-09-29T12:47:17.171Z,1008.29
2018-09-29T12:48:26.880Z,1008.31
2018-09-29T12:49:36.963Z,1008.33
2018-09-29T12:50:46.782Z,1008.27
2018-09-29T12:51:56.653Z,1008.25
2018-09-29T12:53:06.523Z,1008.25
2018-09-29T12:54:16.071Z,1008.26
2018-09-29T12:55:25.893Z,1008.19
2018-09-29T12:56:35.715Z,1008.26
2018-09-29T12:57:45.604Z,1008.22
2018-09-29T12:58:55.417Z,1008.2
2018-09-29T13:00:06.963Z,1008.22
2018-09-29T13:01:16.574Z,1008.23
2018-09-29T13:02:26.380Z,1008.25
2018-09-29T13:03:36.478Z,1008.18
2018-09-29T13:04:46.571Z,1008.19
2018-09-29T13:05:56.380Z,1008.25
2018-09-29T13:07:06.489Z,1008.2
2018-09-29T13:08:16.615Z,1008.29
2018-09-29T13:09:26.691Z,1008.26
2018-09-29T13:10:36.838Z,1008.21
2018-09-29T13:11:46.654Z,1008.14
2018-09-29T13:12:56.726Z,1008.2
2018-09-29T13:14:06.807Z,1008.22
2018-09-29T13:15:16.886Z,1008.25
2018-09-29T13:16:26.731Z,1008.17
2018-09-29T13:17:36.814Z,1008.23
2018-09-29T13:18:46.949Z,1008.16
2018-09-29T13:19:56.757Z,1008.19
2018-09-29T13:21:06.835Z,1008.16
2018-09-29T13:22:16.975Z,1008.12
2018-09-29T13:23:26.842Z,1008.18
2018-09-29T13:24:36.909Z,1008.13
2018-09-29T13:25:46.984Z,1008.09
2018-09-29T13:26:56.806Z,1008.22
2018-09-29T13:28:06.668Z,1008.14
2018-09-29T13:29:16.770Z,1008.13
2018-09-29T13:30:26.997Z,1008.07
2018-09-29T13:31:37.096Z,1008.08
2018-09-29T13:32:46.960Z,1008.07
2018-09-29T13:33:57.092Z,1008.08
2018-09-29T13:35:06.925Z,1008.07
2018-09-29T13:36:16.742Z,1008.06
2018-09-29T13:37:26.820Z,1008.06
2018-09-29T13:38:36.878Z,1008.05
2018-09-29T13:39:46.962Z,1008.05
2018-09-29T13:40:57.067Z,1008.05
2018-09-29T13:42:07.415Z,1008.03
2018-09-29T13:43:17.512Z,1008.04
2018-09-29T13:44:27.617Z,1008.01
2018-09-29T13:45:37.438Z,1008
2018-09-29T13:46:47.769Z,1007.98
2018-09-29T13:47:57.850Z,1007.97
2018-09-29T13:49:10.688Z,1007.97
2018-09-29T13:50:20.768Z,1007.97
2018-09-29T13:51:30.646Z,1007.92
2018-09-29T13:52:40.742Z,1007.97
2018-09-29T13:53:50.839Z,1007.94
2018-09-29T13:55:00.941Z,1007.94
2018-09-29T13:56:11.027Z,1007.87
2018-09-29T13:57:21.228Z,1007.9
2018-09-29T13:58:31.608Z,1007.93
2018-09-29T13:59:41.707Z,1007.89
2018-09-29T14:00:51.805Z,1007.9
2018-09-29T14:02:01.913Z,1007.89
2018-09-29T14:03:12.293Z,1007.91
2018-09-29T14:04:22.431Z,1007.96
2018-09-29T14:05:32.553Z,1007.87
2018-09-29T14:06:42.637Z,1007.95
2018-09-29T14:07:52.464Z,1007.97
2018-09-29T14:09:03.532Z,1007.95
2018-09-29T14:10:13.372Z,1007.93
2018-09-29T14:11:22.927Z,1007.93
2018-09-29T14:12:33.000Z,1007.93
2018-09-29T14:13:43.103Z,1007.9
2018-09-29T14:14:53.246Z,1007.93
2018-09-29T14:16:03.347Z,1007.92
2018-09-29T14:17:13.456Z,1007.89
2018-09-29T14:18:23.541Z,1007.89
2018-09-29T14:19:33.664Z,1007.87
2018-09-29T14:20:43.810Z,1007.89
2018-09-29T14:21:53.912Z,1007.86
2018-09-29T14:23:04.025Z,1007.87
2018-09-29T14:24:14.214Z,1007.88
2018-09-29T14:25:24.133Z,1007.98
2018-09-29T14:26:33.941Z,1007.96
2018-09-29T14:27:44.046Z,1007.88
2018-09-29T14:28:54.002Z,1007.87
2018-09-29T14:30:04.392Z,1007.86
2018-09-29T14:31:14.453Z,1007.94
2018-09-29T14:32:24.599Z,1007.92
2018-09-29T14:33:34.431Z,1007.89
2018-09-29T14:34:44.508Z,1007.95
2018-09-29T14:35:54.615Z,1007.88
2018-09-29T14:37:04.799Z,1007.85
2018-09-29T14:38:14.552Z,1007.88
2018-09-29T14:39:24.670Z,1007.85
2018-09-29T14:40:34.521Z,1007.76
2018-09-29T14:41:44.716Z,1007.82
2018-09-29T14:42:55.062Z,1007.79